createdAt,value
2022-09-28T00:04:25.382Z,70.65
2022-09-28T00:09:31.151Z,64.63
2022-09-28T00:14:37.412Z,51.55
2022-09-28T00:19:43.223Z,37.35
2022-09-28T00:24:50.086Z,64.47
2022-09-28T00:29:56.327Z,48.13
2022-09-28T00:35:05.347Z,65.68
2022-09-28T00:40:14.613Z,65.20
2022-09-28T00:45:20.468Z,65.22
2022-09-28T00:50:32.700Z,65.57
2022-09-28T00:55:45.587Z,67.18
2022-09-28T01:00:52.472Z,63.05
2022-09-28T01:06:02.038Z,45.13
2022-09-28T01:11:08.465Z,39.20
2022-09-28T01:16:39.866Z,57.72
2022-09-28T01:22:29.521Z,50.58
2022-09-28T01:28:00.456Z,38.63
2022-09-28T01:33:15.843Z,72.63
2022-09-28T01:38:25.720Z,71.82
2022-09-28T01:43:35.330Z,73.88
2022-09-28T01:49:00.657Z,69.30
2022-09-28T01:54:15.105Z,76.80
2022-09-28T01:59:34.986Z,57.78
2022-09-28T02:05:09.462Z,75.38
2022-09-28T02:10:33.436Z,67.32
2022-09-28T02:15:53.842Z,59.85
2022-09-28T02:21:09.679Z,67.32
2022-09-28T02:26:22.866Z,89.03
2022-09-28T02:31:30.008Z,56.65
2022-09-28T02:36:37.102Z,85.00
2022-09-28T02:42:13.935Z,85.53
2022-09-28T02:47:29.973Z,78.50
2022-09-28T02:53:13.303Z,78.75
2022-09-28T02:58:38.646Z,64.57
2022-09-28T03:03:53.124Z,94.82
2022-09-28T03:09:20.766Z,101.70
2022-09-28T03:14:26.777Z,78.90
2022-09-28T03:19:39.826Z,78.85
2022-09-28T03:24:45.820Z,84.72
2022-09-28T03:29:51.871Z,75.97
2022-09-28T03:34:57.942Z,76.28
2022-09-28T03:40:04.537Z,78.53
2022-09-28T03:45:12.031Z,70.63
2022-09-28T03:50:18.382Z,76.28
2022-09-28T03:55:24.304Z,76.80
2022-09-28T04:00:30.307Z,69.80
2022-09-28T04:05:36.490Z,70.90
2022-09-28T04:10:42.105Z,75.40
2022-09-28T04:21:09.812Z,67.53
2022-09-28T04:26:25.929Z,68.13
2022-09-28T04:31:32.436Z,69.85
2022-09-28T04:36:39.016Z,71.30
2022-09-28T04:41:46.568Z,69.85
2022-09-28T04:46:52.794Z,63.80
2022-09-28T04:52:09.417Z,66.57
2022-09-28T04:57:26.639Z,70.53
2022-09-28T05:02:36.147Z,61.72
2022-09-28T05:08:05.185Z,64.15
2022-09-28T05:13:12.152Z,52.55
2022-09-28T05:18:18.783Z,60.80
2022-09-28T05:23:30.902Z,55.25
2022-09-28T05:28:37.037Z,48.15
2022-09-28T05:34:15.037Z,53.55
2022-09-28T05:39:22.476Z,60.50
2022-09-28T05:44:28.721Z,69.18
2022-09-28T05:49:38.278Z,64.38
2022-09-28T05:54:43.902Z,64.90
2022-09-28T06:05:11.020Z,44.22
2022-09-28T06:10:19.348Z,46.05
2022-09-28T06:15:48.537Z,46.78
2022-09-28T06:20:54.398Z,44.30
2022-09-28T06:26:09.620Z,58.28
2022-09-28T06:31:16.089Z,42.85
2022-09-28T06:36:25.744Z,56.33
2022-09-28T06:46:40.421Z,44.85
2022-09-28T06:52:06.826Z,48.42
2022-09-28T06:58:01.209Z,47.47
2022-09-28T07:03:10.424Z,56.40
2022-09-28T07:08:30.708Z,41.67
2022-09-28T07:13:50.251Z,48.28
2022-09-28T07:19:00.565Z,57.05
2022-09-28T07:24:07.309Z,38.25
2022-09-28T07:29:13.585Z,37.88
2022-09-28T07:34:39.658Z,45.97
2022-09-28T07:40:30.177Z,45.88
2022-09-28T07:45:40.342Z,51.42
2022-09-28T07:50:54.662Z,37.15
2022-09-28T07:56:22.935Z,36.90
2022-09-28T08:01:51.844Z,37.75
2022-09-28T08:06:58.364Z,39.03
2022-09-28T08:12:06.165Z,42.08
2022-09-28T08:17:34.876Z,50.00
2022-09-28T08:22:44.706Z,34.35
2022-09-28T08:27:51.320Z,32.50
2022-09-28T08:32:58.084Z,35.70
2022-09-28T08:38:22.043Z,39.60
2022-09-28T08:44:13.323Z,28.98
2022-09-28T08:49:46.739Z,35.28
2022-09-28T08:55:35.183Z,43.83
2022-09-28T09:00:45.596Z,38.00
2022-09-28T09:06:19.150Z,39.83
2022-09-28T09:11:48.179Z,33.70
2022-09-28T09:17:31.655Z,33.65
2022-09-28T09:23:05.860Z,33.03
2022-09-28T09:28:48.620Z,31.23
2022-09-28T09:34:26.415Z,40.47
2022-09-28T09:40:11.919Z,35.38
2022-09-28T09:45:54.445Z,27.50
2022-09-28T09:51:46.800Z,43.97
2022-09-28T09:57:19.889Z,36.42
2022-09-28T10:02:44.172Z,41.13
2022-09-28T10:08:17.999Z,42.33
2022-09-28T10:13:24.972Z,30.90
2022-09-28T10:18:33.679Z,35.78
2022-09-28T10:24:04.335Z,46.40
2022-09-28T10:29:24.090Z,44.65
2022-09-28T10:34:31.998Z,42.63
2022-09-28T10:39:55.219Z,40.72
2022-09-28T10:45:23.948Z,40.42
2022-09-28T10:50:30.650Z,46.25
2022-09-28T10:56:01.696Z,41.08
2022-09-28T11:01:28.474Z,49.78
2022-09-28T11:06:43.502Z,46.97
2022-09-28T11:11:50.408Z,50.20
2022-09-28T11:17:27.474Z,40.83
2022-09-28T11:22:36.404Z,40.80
2022-09-28T11:27:57.713Z,55.80
2022-09-28T11:33:13.618Z,45.08
2022-09-28T11:39:10.829Z,56.10
2022-09-28T11:44:48.506Z,53.08
2022-09-28T11:50:05.839Z,54.85
2022-09-28T11:55:26.471Z,57.25
2022-09-28T12:00:37.005Z,54.75
2022-09-28T12:06:02.051Z,34.83
2022-09-28T12:11:08.070Z,50.83
2022-09-28T12:17:08.678Z,49.53
2022-09-28T12:22:39.175Z,42.90
2022-09-28T12:27:55.951Z,37.58
2022-09-28T12:33:19.835Z,45.90
2022-09-28T12:39:02.922Z,38.45
2022-09-28T12:44:59.633Z,56.30
2022-09-28T12:56:03.754Z,53.58
2022-09-28T13:01:41.416Z,36.13
2022-09-28T13:07:04.469Z,49.90
2022-09-28T13:12:14.502Z,44.83
2022-09-28T13:23:21.920Z,56.47
2022-09-28T13:28:31.411Z,54.08
2022-09-28T13:39:28.074Z,51.05
2022-09-28T13:45:34.269Z,48.47
2022-09-28T13:51:10.331Z,55.42
2022-09-28T13:56:51.844Z,53.30
2022-09-28T14:02:15.175Z,46.80
2022-09-28T14:07:38.865Z,49.38
2022-09-28T14:13:04.198Z,56.28
2022-09-28T14:18:29.707Z,46.83
2022-09-28T14:24:08.357Z,52.45
2022-09-28T14:29:34.454Z,57.50
2022-09-28T14:34:50.329Z,48.88
2022-09-28T14:40:17.716Z,45.92
2022-09-28T14:45:41.726Z,37.50
2022-09-28T14:50:57.432Z,51.55
2022-09-28T14:56:14.159Z,55.78
2022-09-28T15:01:28.074Z,47.53
2022-09-28T15:06:52.419Z,45.35
2022-09-28T15:12:20.302Z,49.85
2022-09-28T15:17:40.234Z,45.22
2022-09-28T15:22:56.161Z,39.03
2022-09-28T15:28:05.149Z,54.33
2022-09-28T15:33:47.782Z,42.53
2022-09-28T15:39:17.569Z,54.10
2022-09-28T15:44:40.569Z,44.42
2022-09-28T15:50:00.366Z,45.72
2022-09-28T15:55:21.799Z,53.65
2022-09-28T16:00:37.746Z,54.90
2022-09-28T16:06:16.170Z,57.25
2022-09-28T16:11:23.949Z,43.13
2022-09-28T16:16:35.835Z,47.40
2022-09-28T16:21:50.281Z,57.50
2022-09-28T16:27:04.870Z,50.30
2022-09-28T16:32:29.617Z,63.92
2022-09-28T16:37:35.536Z,51.17
2022-09-28T16:42:49.263Z,54.70
2022-09-28T16:47:59.120Z,59.03
2022-09-28T16:53:43.280Z,53.88
2022-09-28T16:58:51.114Z,48.42
2022-09-28T17:03:57.127Z,52.67
2022-09-28T17:09:08.405Z,55.08
2022-09-28T17:14:15.717Z,53.58
2022-09-28T17:19:24.604Z,58.05
2022-09-28T17:24:30.539Z,46.90
2022-09-28T17:29:36.355Z,47.55
2022-09-28T17:34:44.039Z,57.38
2022-09-28T17:39:51.318Z,49.85
2022-09-28T17:44:59.554Z,49.83
2022-09-28T17:50:05.297Z,48.72
2022-09-28T17:55:11.290Z,49.55
2022-09-28T18:00:17.986Z,42.38
2022-09-28T18:05:25.175Z,45.60
2022-09-28T18:10:32.444Z,42.33
2022-09-28T18:15:38.471Z,54.72
2022-09-28T18:20:43.887Z,52.55
2022-09-28T18:25:50.963Z,48.70
2022-09-28T18:30:56.525Z,36.97
2022-09-28T18:36:01.901Z,49.45
2022-09-28T18:41:18.655Z,45.45
2022-09-28T18:46:28.881Z,57.35
2022-09-28T18:51:34.666Z,60.63
2022-09-28T18:56:43.160Z,57.13
2022-09-28T19:01:48.848Z,51.72
2022-09-28T19:06:55.993Z,45.28
2022-09-28T19:12:01.801Z,47.25
2022-09-28T19:22:12.288Z,55.33
2022-09-28T19:27:17.864Z,45.80
2022-09-28T19:32:23.271Z,52.80
2022-09-28T19:37:28.921Z,52.50
2022-09-28T19:42:37.890Z,38.38
2022-09-28T19:47:43.623Z,57.22
2022-09-28T19:52:49.098Z,54.28
2022-09-28T19:57:54.392Z,50.70
2022-09-28T20:03:01.456Z,58.85
2022-09-28T20:08:06.792Z,50.75
2022-09-28T20:13:12.429Z,47.80
2022-09-28T20:23:23.323Z,57.75
2022-09-28T20:33:38.688Z,59.22
2022-09-28T20:38:45.723Z,57.50
2022-09-28T20:43:55.281Z,48.75
2022-09-28T20:49:01.331Z,39.97
2022-09-28T20:54:06.918Z,45.60
2022-09-28T21:04:19.724Z,53.88
2022-09-28T21:14:31.218Z,50.95
2022-09-28T21:19:36.833Z,48.55
2022-09-28T21:24:43.330Z,41.78
2022-09-28T21:29:49.079Z,32.50
2022-09-28T21:34:54.968Z,42.80
2022-09-28T21:40:01.282Z,44.85
2022-09-28T21:45:07.462Z,33.67
2022-09-28T21:50:13.400Z,38.40
2022-09-28T21:55:20.699Z,54.25
2022-09-28T22:00:26.311Z,56.65
2022-09-28T22:05:32.032Z,55.63
2022-09-28T22:15:42.795Z,51.00
2022-09-28T22:20:48.767Z,44.83
2022-09-28T22:26:03.836Z,37.55
2022-09-28T22:31:09.750Z,51.72
2022-09-28T22:36:18.292Z,48.22
2022-09-28T22:41:24.444Z,43.40
2022-09-28T22:46:33.494Z,42.17
2022-09-28T22:51:39.797Z,42.75
2022-09-28T22:56:45.924Z,52.88
2022-09-28T23:01:52.209Z,37.17
2022-09-28T23:06:58.320Z,33.85
2022-09-28T23:12:04.181Z,42.22
2022-09-28T23:17:10.792Z,52.97
2022-09-28T23:22:16.928Z,51.08
2022-09-28T23:27:23.325Z,47.72
2022-09-28T23:32:32.021Z,49.85
2022-09-28T23:37:39.013Z,47.95
2022-09-28T23:42:45.030Z,32.08
2022-09-28T23:47:50.896Z,36.13
2022-09-28T23:52:56.705Z,28.73
2022-09-28T23:58:02.976Z,35.08
